Time;durP1;ratioP1;P1;durP2;ratioP2;P2;SDS_P1;SDS_P2;PMS_P1;PMS_P2;Temp;Humidity;BMP_temperature;BMP_pressure;BME280_temperature;BME280_humidity;BME280_pressure;Samples;Min_cycle;Max_cycle;Signal;HPM_P1;HPM_P2
2023/01/24 00:00:16;;;;;;;2.38;1.08;;;21.80;53.40;;;;;;4949305;28;20664;-54
2023/01/24 00:02:46;;;;;;;1.98;0.90;;;21.80;53.40;;;;;;4933663;29;20298;-55
2023/01/24 00:05:17;;;;;;;1.10;0.90;;;21.80;53.40;;;;;;4940067;29;20191;-55
2023/01/24 00:07:50;;;;;;;2.42;0.88;;;21.80;53.40;;;;;;4952292;28;20219;-55
2023/01/24 00:10:21;;;;;;;2.53;0.90;;;21.80;53.50;;;;;;4952090;28;20191;-55
2023/01/24 00:12:51;;;;;;;3.03;1.20;;;21.80;53.40;;;;;;4947125;28;20203;-56
2023/01/24 00:15:22;;;;;;;1.27;0.77;;;21.80;53.40;;;;;;4939844;29;20187;-56
2023/01/24 00:17:53;;;;;;;0.90;0.63;;;21.80;53.40;;;;;;4951823;28;20219;-56
2023/01/24 00:20:23;;;;;;;2.88;0.90;;;21.80;53.40;;;;;;4952384;28;20199;-56
2023/01/24 00:22:56;;;;;;;1.35;0.77;;;21.80;53.40;;;;;;4953209;29;20206;-55
2023/01/24 00:25:27;;;;;;;2.08;0.93;;;21.80;53.40;;;;;;4952614;28;20556;-57
2023/01/24 00:27:58;;;;;;;1.15;0.90;;;21.80;53.30;;;;;;4951597;28;20223;-56
2023/01/24 00:30:29;;;;;;;1.35;0.73;;;21.80;53.30;;;;;;4951773;28;20199;-56
2023/01/24 00:33:00;;;;;;;2.17;1.10;;;21.80;53.40;;;;;;4952204;28;20199;-57
2023/01/24 00:35:30;;;;;;;1.17;0.73;;;21.80;53.40;;;;;;4952199;28;20555;-56
2023/01/24 00:38:03;;;;;;;3.05;1.17;;;21.80;53.40;;;;;;4952559;28;20218;-55
2023/01/24 00:40:34;;;;;;;1.25;0.80;;;21.80;53.40;;;;;;4952212;28;20191;-57
2023/01/24 00:43:04;;;;;;;1.77;0.90;;;21.80;53.40;;;;;;4942361;29;20203;-55
2023/01/24 00:45:40;;;;;;;2.40;0.85;;;21.80;53.40;;;;;;4939542;29;20195;-55
2023/01/24 00:48:11;;;;;;;2.10;1.00;;;21.80;53.40;;;;;;4952452;28;20226;-56
2023/01/24 00:50:42;;;;;;;2.03;0.98;;;21.80;53.40;;;;;;4952289;28;20561;-55
2023/01/24 00:53:14;;;;;;;1.20;0.70;;;21.80;53.40;;;;;;4952208;28;20206;-56
2023/01/24 00:55:46;;;;;;;1.23;0.80;;;21.80;53.40;;;;;;4939731;29;20195;-56
2023/01/24 00:58:17;;;;;;;1.52;0.90;;;21.80;53.40;;;;;;4951628;28;20233;-56
2023/01/24 01:00:48;;;;;;;1.63;1.02;;;21.80;53.40;;;;;;4950705;28;20195;-56
2023/01/24 01:03:22;;;;;;;2.20;0.95;;;21.80;53.50;;;;;;4951588;28;20195;-54
2023/01/24 01:05:59;;;;;;;2.33;1.00;;;21.80;53.40;;;;;;4952034;28;20204;-55
2023/01/24 01:08:32;;;;;;;2.80;0.80;;;21.80;53.40;;;;;;4951838;28;20226;-56
2023/01/24 01:11:03;;;;;;;2.90;0.88;;;21.90;53.50;;;;;;4952142;28;20199;-54
2023/01/24 01:13:34;;;;;;;2.13;0.82;;;21.80;53.50;;;;;;4940973;28;20215;-55
2023/01/24 01:16:09;;;;;;;1.50;0.82;;;21.90;53.50;;;;;;4939793;29;20195;-54
2023/01/24 01:18:40;;;;;;;1.85;0.90;;;21.90;53.50;;;;;;4914245;29;20743;-56
2023/01/24 01:21:13;;;;;;;1.45;0.77;;;21.90;53.50;;;;;;4917459;29;20207;-53
2023/01/24 01:23:48;;;;;;;1.75;0.93;;;21.90;53.50;;;;;;4917841;29;20200;-56
2023/01/24 01:26:21;;;;;;;2.47;0.90;;;21.90;53.50;;;;;;4917667;29;20227;-55
2023/01/24 01:28:52;;;;;;;1.90;0.90;;;21.90;53.50;;;;;;4917173;29;20201;-54
2023/01/24 01:31:22;;;;;;;1.25;1.00;;;21.90;53.50;;;;;;4917592;29;20220;-55
2023/01/24 01:33:53;;;;;;;1.23;0.90;;;21.90;53.50;;;;;;4917830;29;20204;-54
2023/01/24 01:36:24;;;;;;;2.38;1.23;;;21.90;53.50;;;;;;4917285;29;20200;-56
2023/01/24 01:38:56;;;;;;;1.95;0.80;;;21.90;53.50;;;;;;4917070;29;20224;-55
2023/01/24 01:41:27;;;;;;;1.70;0.90;;;21.90;53.50;;;;;;4917211;29;20200;-55
2023/01/24 01:46:46;;;;;;;1.85;0.80;;;21.90;53.40;;;;;;4936539;29;20259;-52
2023/01/24 01:49:24;;;;;;;2.30;1.00;;;21.90;53.50;;;;;;4936498;29;20195;-55
2023/01/24 01:51:58;;;;;;;3.08;0.95;;;21.90;53.40;;;;;;4936452;29;20207;-54
2023/01/24 01:54:36;;;;;;;1.58;1.00;;;21.90;53.40;;;;;;4952924;29;20264;-56
2023/01/24 01:57:10;;;;;;;1.83;0.82;;;21.90;53.50;;;;;;4955424;28;20717;-55
2023/01/24 01:59:44;;;;;;;2.20;1.05;;;21.90;53.50;;;;;;4955377;28;20297;-54
2023/01/24 02:02:20;;;;;;;2.28;1.10;;;21.90;53.50;;;;;;4955158;28;20202;-57
2023/01/24 02:04:55;;;;;;;1.02;0.88;;;21.90;53.40;;;;;;4934929;28;20199;-55
2023/01/24 02:07:29;;;;;;;2.60;1.00;;;22.00;53.40;;;;;;4935146;29;20235;-56
2023/01/24 02:10:02;;;;;;;1.77;0.93;;;22.00;53.40;;;;;;4944258;29;20207;-55
2023/01/24 02:12:35;;;;;;;2.17;0.98;;;22.00;53.40;;;;;;4935205;29;20207;-54
2023/01/24 02:17:55;;;;;;;1.92;0.95;;;22.00;53.30;;;;;;4954572;28;20575;-56
2023/01/24 02:20:39;;;;;;;3.47;1.10;;;22.00;53.30;;;;;;4954527;29;20226;-57
2023/01/24 02:23:26;;;;;;;2.35;1.00;;;22.00;53.30;;;;;;4939735;28;20821;-57
2023/01/24 02:26:09;;;;;;;3.28;1.30;;;22.00;53.30;;;;;;4954607;28;20258;-57
2023/01/24 02:28:40;;;;;;;3.28;1.35;;;22.00;53.40;;;;;;4954359;28;20288;-56
2023/01/24 02:31:10;;;;;;;3.50;1.20;;;22.00;53.50;;;;;;4953809;28;20202;-56
2023/01/24 02:33:41;;;;;;;5.03;1.60;;;22.00;53.50;;;;;;4953483;28;20651;-57
2023/01/24 02:36:21;;;;;;;4.15;1.50;;;21.90;53.50;;;;;;4954050;28;20194;-57
2023/01/24 02:38:57;;;;;;;3.33;1.13;;;21.90;53.60;;;;;;4954317;28;20222;-57
2023/01/24 02:41:32;;;;;;;1.75;1.08;;;22.00;53.70;;;;;;4954036;28;20198;-55
2023/01/24 02:44:06;;;;;;;4.30;1.23;;;21.90;53.60;;;;;;4939090;28;20200;-56
2023/01/24 02:46:39;;;;;;;2.90;1.08;;;21.90;53.70;;;;;;4932343;29;20195;-57
2023/01/24 02:49:11;;;;;;;3.22;1.38;;;21.90;53.60;;;;;;4941998;29;20195;-57
2023/01/24 02:54:28;;;;;;;3.13;1.05;;;21.90;53.60;;;;;;4953543;29;20322;-58
2023/01/24 02:59:47;;;;;;;4.15;1.67;;;22.00;53.60;;;;;;4949558;29;20237;-56
2023/01/24 03:02:18;;;;;;;2.42;1.30;;;22.00;53.50;;;;;;4953503;28;20195;-56
2023/01/24 03:04:48;;;;;;;3.92;1.35;;;22.00;53.60;;;;;;4953256;28;20199;-58
2023/01/24 03:07:19;;;;;;;3.13;1.30;;;22.00;53.60;;;;;;4953337;28;20683;-56
2023/01/24 03:09:50;;;;;;;4.28;1.45;;;21.90;53.60;;;;;;4953561;28;20579;-56
2023/01/24 03:34:50;;;;;;;3.03;1.00;;;22.00;53.60;;;;;;4953316;29;20249;-55
2023/01/24 03:39:53;;;;;;;2.00;1.02;;;22.00;54.20;;;;;;4953296;28;20222;-56
2023/01/24 03:40:15;;;;;;;4.28;1.20;;;22.00;53.50;;;;;;4952396;29;20758;-57
2023/01/24 03:42:51;;;;;;;2.67;1.17;;;22.00;53.50;;;;;;4947712;28;20290;-56
2023/01/24 03:45:25;;;;;;;2.50;1.00;;;22.00;53.50;;;;;;4947532;29;20202;-56
2023/01/24 03:47:58;;;;;;;1.58;1.10;;;22.00;53.50;;;;;;4952704;28;20229;-55
2023/01/24 03:53:18;;;;;;;3.80;1.10;;;22.00;53.50;;;;;;4951553;29;20205;-53
2023/01/24 03:55:49;;;;;;;1.73;0.95;;;22.00;53.50;;;;;;4949023;29;20195;-55
2023/01/24 03:58:20;;;;;;;2.88;1.08;;;22.00;53.50;;;;;;4947508;28;20220;-54
2023/01/24 04:00:53;;;;;;;2.45;1.20;;;21.90;53.50;;;;;;4949880;29;20230;-57
2023/01/24 04:03:24;;;;;;;2.03;0.90;;;22.00;53.50;;;;;;4916694;28;20211;-55
2023/01/24 04:05:55;;;;;;;2.90;0.95;;;22.00;53.50;;;;;;4949095;29;20203;-56
2023/01/24 04:08:25;;;;;;;4.90;1.30;;;22.00;53.40;;;;;;4952777;28;20226;-55
2023/01/24 04:10:58;;;;;;;3.85;1.42;;;22.00;53.50;;;;;;4952296;28;20206;-53
2023/01/24 04:13:29;;;;;;;6.88;2.25;;;22.00;53.40;;;;;;4942606;28;20207;-55
2023/01/24 04:16:01;;;;;;;3.92;2.25;;;22.00;53.30;;;;;;4950241;29;20209;-54
2023/01/24 04:18:32;;;;;;;6.63;3.97;;;22.00;53.30;;;;;;4952333;28;20222;-57
2023/01/24 04:21:05;;;;;;;5.95;3.30;;;22.00;53.20;;;;;;4952184;28;20218;-53
2023/01/24 04:23:36;;;;;;;6.60;4.30;;;22.00;53.20;;;;;;4952645;28;20710;-56
2023/01/24 04:26:06;;;;;;;10.43;5.78;;;22.00;53.20;;;;;;4952298;28;20202;-53
2023/01/24 04:28:37;;;;;;;10.52;6.03;;;22.00;53.20;;;;;;4951845;28;20222;-56
2023/01/24 04:31:11;;;;;;;10.50;6.82;;;21.90;53.20;;;;;;4951800;28;20547;-55
2023/01/24 04:33:41;;;;;;;9.60;6.65;;;22.00;53.20;;;;;;4951889;28;20198;-54
2023/01/24 04:36:15;;;;;;;11.23;6.35;;;22.00;53.20;;;;;;4952195;28;20558;-54
2023/01/24 04:38:45;;;;;;;10.10;6.43;;;22.00;53.20;;;;;;4938625;28;20570;-53
2023/01/24 04:41:16;;;;;;;8.73;5.90;;;22.00;53.20;;;;;;4932879;29;20223;-52
2023/01/24 04:43:47;;;;;;;8.85;6.40;;;22.00;53.20;;;;;;4933132;29;20211;-55
2023/01/24 04:46:19;;;;;;;8.65;5.28;;;22.00;53.20;;;;;;4951436;29;20195;-52
2023/01/24 04:48:50;;;;;;;10.05;6.43;;;22.00;53.10;;;;;;4952079;28;20206;-51
2023/01/24 04:51:21;;;;;;;8.27;5.53;;;22.00;53.10;;;;;;4952343;28;20211;-56
2023/01/24 04:53:51;;;;;;;8.60;5.50;;;22.00;53.10;;;;;;4951505;28;20195;-55
2023/01/24 04:56:22;;;;;;;6.80;4.90;;;22.00;53.00;;;;;;4938214;28;20200;-55
2023/01/24 04:58:53;;;;;;;8.75;5.20;;;22.00;53.00;;;;;;4926114;29;20690;-56
2023/01/24 05:01:25;;;;;;;7.57;4.95;;;22.00;53.00;;;;;;4955154;29;20210;-58
2023/01/24 05:03:58;;;;;;;6.63;4.25;;;22.00;53.00;;;;;;4956237;28;20207;-55
2023/01/24 05:06:29;;;;;;;6.88;3.55;;;22.00;53.00;;;;;;4955687;28;20202;-56
2023/01/24 05:09:00;;;;;;;6.50;3.95;;;22.00;52.90;;;;;;4955473;28;20205;-56
2023/01/24 05:11:31;;;;;;;10.90;3.33;;;22.00;52.90;;;;;;4955253;28;20198;-53
2023/01/24 05:14:01;;;;;;;5.35;2.83;;;22.00;52.90;;;;;;4939080;29;20215;-55
2023/01/24 05:16:34;;;;;;;6.28;3.22;;;21.90;52.90;;;;;;4954411;28;20214;-55
2023/01/24 05:19:05;;;;;;;8.75;3.45;;;21.90;52.80;;;;;;4955903;28;20203;-56
2023/01/24 05:21:35;;;;;;;7.03;2.95;;;21.90;52.80;;;;;;4956015;28;20203;-53
2023/01/24 05:24:06;;;;;;;7.95;3.05;;;21.90;52.80;;;;;;4956014;28;20198;-54
2023/01/24 05:26:37;;;;;;;8.00;3.10;;;21.90;52.80;;;;;;4955725;28;20213;-52
2023/01/24 05:29:08;;;;;;;7.80;2.92;;;21.90;52.80;;;;;;4955561;28;20203;-55
2023/01/24 05:31:40;;;;;;;6.75;3.00;;;21.90;52.80;;;;;;4955655;28;20199;-52
2023/01/24 05:34:11;;;;;;;6.90;3.10;;;21.90;52.80;;;;;;4954843;28;20195;-53
2023/01/24 05:36:42;;;;;;;7.47;3.58;;;21.90;52.80;;;;;;4954830;28;20213;-53
2023/01/24 05:39:14;;;;;;;5.43;3.00;;;21.90;52.80;;;;;;4955319;28;20205;-56
2023/01/24 05:41:45;;;;;;;7.90;3.70;;;21.90;52.80;;;;;;4955645;28;20249;-54
2023/01/24 05:44:16;;;;;;;4.70;3.03;;;21.90;52.80;;;;;;4937889;28;20207;-55
2023/01/24 05:46:48;;;;;;;7.57;3.53;;;21.90;52.90;;;;;;4954931;28;20211;-58
2023/01/24 05:49:19;;;;;;;6.13;3.17;;;21.90;52.90;;;;;;4955363;28;20199;-56
2023/01/24 05:51:49;;;;;;;4.82;3.00;;;21.90;52.90;;;;;;4955385;28;20199;-56
2023/01/24 05:54:20;;;;;;;5.72;3.10;;;21.90;52.90;;;;;;4955569;28;20199;-56
2023/01/24 05:56:51;;;;;;;4.00;3.03;;;21.90;52.90;;;;;;4952622;28;20215;-55
2023/01/24 05:59:21;;;;;;;5.05;2.50;;;21.90;52.90;;;;;;4936192;28;20672;-56
2023/01/24 06:01:54;;;;;;;6.88;3.38;;;21.90;52.90;;;;;;4954174;29;20576;-55
2023/01/24 06:04:25;;;;;;;5.00;2.75;;;21.90;52.90;;;;;;4954720;28;20195;-56
2023/01/24 06:07:06;;;;;;;5.40;2.75;;;21.80;52.90;;;;;;4953153;28;20227;-57
2023/01/24 06:09:37;;;;;;;5.10;2.92;;;21.90;52.90;;;;;;4954602;28;20258;-57
2023/01/24 06:12:08;;;;;;;5.47;2.80;;;21.90;52.90;;;;;;4954127;28;20199;-57
2023/01/24 06:14:39;;;;;;;5.30;2.75;;;21.80;52.80;;;;;;4916977;29;20211;-57
2023/01/24 06:17:11;;;;;;;5.78;2.80;;;21.90;52.90;;;;;;4953568;28;20234;-55
2023/01/24 06:19:42;;;;;;;5.65;3.10;;;21.90;52.90;;;;;;4951880;28;20210;-56
2023/01/24 06:22:28;;;;;;;5.47;3.20;;;21.90;52.90;;;;;;4936105;29;20207;-55
2023/01/24 06:24:58;;;;;;;4.10;2.72;;;21.90;52.90;;;;;;4935752;29;20196;-56
2023/01/24 06:27:29;;;;;;;6.32;2.92;;;21.80;52.80;;;;;;4935838;29;20220;-56
2023/01/24 06:30:00;;;;;;;2.80;2.40;;;21.80;52.80;;;;;;4935668;29;20651;-56
2023/01/24 06:32:43;;;;;;;5.90;3.05;;;21.80;52.80;;;;;;4935713;29;20203;-58
2023/01/24 06:35:22;;;;;;;5.07;3.00;;;21.80;52.90;;;;;;4935660;29;20206;-57
2023/01/24 06:37:54;;;;;;;4.82;3.13;;;21.80;52.80;;;;;;4934787;29;20703;-55
2023/01/24 06:40:26;;;;;;;4.32;2.85;;;21.80;52.80;;;;;;4934752;29;20253;-56
2023/01/24 06:42:57;;;;;;;5.28;2.50;;;21.90;52.90;;;;;;4934912;29;20211;-56
2023/01/24 06:45:28;;;;;;;4.22;3.08;;;21.80;52.80;;;;;;4934938;29;20219;-55
2023/01/24 06:48:00;;;;;;;3.85;2.88;;;21.90;52.80;;;;;;4935167;29;20220;-55
2023/01/24 06:50:32;;;;;;;4.15;2.80;;;21.90;52.90;;;;;;4935310;29;20199;-56
2023/01/24 06:53:03;;;;;;;4.88;2.58;;;21.90;52.80;;;;;;4935333;29;20203;-56
2023/01/24 06:55:34;;;;;;;5.10;2.95;;;21.90;52.80;;;;;;4935126;29;20211;-57
2023/01/24 06:58:05;;;;;;;3.40;2.80;;;21.90;52.80;;;;;;4934543;29;20215;-56
2023/01/24 07:00:36;;;;;;;4.32;2.75;;;21.80;52.80;;;;;;4934330;29;20236;-57
2023/01/24 07:03:10;;;;;;;3.63;2.85;;;21.80;52.80;;;;;;4935014;29;20195;-58
2023/01/24 07:05:42;;;;;;;4.15;3.03;;;21.80;52.80;;;;;;4937289;29;20669;-58
2023/01/24 07:08:12;;;;;;;5.03;2.80;;;21.80;52.70;;;;;;4934917;29;20220;-57
2023/01/24 07:10:43;;;;;;;4.82;2.95;;;21.80;52.80;;;;;;4935011;29;20212;-56
2023/01/24 07:13:14;;;;;;;3.10;2.50;;;21.80;52.80;;;;;;4934663;29;20207;-58
2023/01/24 07:15:44;;;;;;;5.05;3.20;;;21.80;52.70;;;;;;4934792;29;20207;-56
2023/01/24 07:18:18;;;;;;;3.40;2.97;;;21.80;52.70;;;;;;4934285;29;20223;-56
2023/01/24 07:20:50;;;;;;;4.03;2.97;;;21.80;52.70;;;;;;4934968;29;20631;-57
2023/01/24 07:23:27;;;;;;;5.30;3.63;;;21.80;52.70;;;;;;4934349;29;20584;-56
2023/01/24 07:25:58;;;;;;;4.95;3.78;;;21.80;52.70;;;;;;4934299;29;20285;-57
2023/01/24 07:28:29;;;;;;;6.25;4.15;;;21.80;52.70;;;;;;4934019;29;20216;-56
2023/01/24 07:31:00;;;;;;;5.15;3.95;;;21.80;52.70;;;;;;4934363;29;20207;-57
2023/01/24 07:33:32;;;;;;;6.30;4.45;;;21.80;52.70;;;;;;4934566;29;20660;-57
2023/01/24 07:36:03;;;;;;;5.78;4.53;;;21.80;52.70;;;;;;4934370;29;20199;-57
2023/01/24 07:38:34;;;;;;;5.75;4.45;;;21.80;52.70;;;;;;4934461;29;20227;-58
2023/01/24 07:41:10;;;;;;;5.25;4.00;;;21.80;52.70;;;;;;4934470;29;20238;-57
2023/01/24 07:43:41;;;;;;;5.70;4.40;;;21.80;52.70;;;;;;4933942;29;20203;-56
2023/01/24 07:46:11;;;;;;;5.03;4.18;;;21.80;52.70;;;;;;4933910;29;20207;-57
2023/01/24 07:48:44;;;;;;;5.05;4.50;;;21.80;52.70;;;;;;4934409;29;20230;-57
2023/01/24 07:51:15;;;;;;;5.13;4.15;;;21.80;52.70;;;;;;4934214;29;20280;-56
2023/01/24 07:53:45;;;;;;;5.05;4.28;;;21.80;52.70;;;;;;4933698;29;20196;-55
2023/01/24 07:56:17;;;;;;;5.50;4.72;;;21.80;52.70;;;;;;4933475;29;20203;-55
2023/01/24 07:58:47;;;;;;;5.53;4.35;;;21.80;52.60;;;;;;4932930;29;20235;-57
2023/01/24 08:01:20;;;;;;;5.38;4.03;;;21.80;52.70;;;;;;4935980;29;20703;-57
2023/01/24 08:03:55;;;;;;;6.93;4.30;;;21.80;52.60;;;;;;4915334;29;20203;-55
2023/01/24 08:06:26;;;;;;;5.18;4.18;;;21.80;52.60;;;;;;4915156;29;20739;-56
2023/01/24 08:08:57;;;;;;;5.60;4.03;;;21.80;52.60;;;;;;4914979;29;20204;-56
2023/01/24 08:11:28;;;;;;;5.13;4.15;;;21.80;52.60;;;;;;4915006;29;20200;-56
2023/01/24 08:13:58;;;;;;;4.80;4.28;;;21.80;52.70;;;;;;4929669;28;20578;-58
2023/01/24 08:16:29;;;;;;;5.65;4.68;;;21.80;52.70;;;;;;4932948;29;20203;-56
2023/01/24 08:19:02;;;;;;;5.07;4.18;;;21.80;52.70;;;;;;4937676;29;20201;-56
2023/01/24 08:21:33;;;;;;;4.72;4.03;;;21.80;52.70;;;;;;4914812;29;20235;-55
2023/01/24 08:24:03;;;;;;;4.97;4.47;;;21.80;52.70;;;;;;4952303;29;20195;-56
2023/01/24 08:26:34;;;;;;;5.10;4.13;;;21.80;52.70;;;;;;4952315;28;20215;-54
2023/01/24 08:29:05;;;;;;;5.30;3.90;;;21.80;52.70;;;;;;4951672;29;20202;-56
2023/01/24 08:31:35;;;;;;;5.78;4.18;;;21.80;52.60;;;;;;4938789;28;20195;-55
2023/01/24 08:34:08;;;;;;;4.50;4.10;;;21.80;52.60;;;;;;4931294;29;20199;-55
2023/01/24 08:36:39;;;;;;;4.82;4.20;;;21.80;52.60;;;;;;4914124;29;20573;-56
2023/01/24 08:39:09;;;;;;;5.57;4.20;;;21.80;52.60;;;;;;4951781;29;20198;-54
2023/01/24 08:41:40;;;;;;;4.35;3.72;;;21.80;52.60;;;;;;4951508;28;20612;-53
2023/01/24 08:44:11;;;;;;;6.00;3.88;;;21.80;52.60;;;;;;4933978;29;20203;-56
2023/01/24 08:46:42;;;;;;;6.40;4.30;;;21.80;52.60;;;;;;4932536;29;20203;-56
2023/01/24 08:49:16;;;;;;;5.07;4.03;;;21.80;52.50;;;;;;4951622;29;20199;-54
2023/01/24 08:51:47;;;;;;;3.97;3.33;;;21.80;52.60;;;;;;4952386;28;20199;-56
2023/01/24 08:54:18;;;;;;;3.92;3.42;;;21.80;52.60;;;;;;4913531;29;20192;-56
2023/01/24 08:56:48;;;;;;;4.10;3.70;;;21.80;52.60;;;;;;4932087;29;20755;-53
2023/01/24 08:59:19;;;;;;;5.22;4.35;;;21.80;52.60;;;;;;4914062;29;20200;-55
2023/01/24 09:01:50;;;;;;;4.47;3.83;;;21.80;53.20;;;;;;4914089;29;20228;-54
2023/01/24 09:04:22;;;;;;;4.20;3.80;;;21.80;52.60;;;;;;4913810;29;20215;-57
2023/01/24 09:06:55;;;;;;;4.45;3.83;;;21.80;52.50;;;;;;4917349;29;20215;-57
2023/01/24 09:09:26;;;;;;;5.03;3.58;;;21.70;52.50;;;;;;4914550;29;20215;-57
2023/01/24 09:11:57;;;;;;;4.43;3.70;;;21.80;52.50;;;;;;4913705;29;20200;-57
2023/01/24 09:14:27;;;;;;;3.67;3.20;;;21.70;52.50;;;;;;4931688;29;20656;-57
2023/01/24 09:16:58;;;;;;;3.80;3.45;;;21.80;52.50;;;;;;4932447;29;20220;-54
2023/01/24 09:19:31;;;;;;;3.88;3.58;;;21.70;52.50;;;;;;4933158;29;20200;-57
2023/01/24 09:22:01;;;;;;;4.13;3.72;;;21.70;52.50;;;;;;4933259;29;20235;-57
2023/01/24 09:24:32;;;;;;;5.15;3.70;;;21.70;52.50;;;;;;4952078;28;20203;-57
2023/01/24 09:27:03;;;;;;;4.20;3.75;;;21.70;52.50;;;;;;4951987;28;20695;-56
2023/01/24 09:29:33;;;;;;;3.97;3.38;;;21.70;52.50;;;;;;4913528;29;20255;-56
2023/01/24 09:32:04;;;;;;;3.88;3.17;;;21.70;52.50;;;;;;4913386;29;20205;-57
2023/01/24 09:34:37;;;;;;;3.42;3.00;;;21.70;52.50;;;;;;4913284;29;20207;-57
2023/01/24 09:37:07;;;;;;;4.07;3.22;;;21.70;52.50;;;;;;4913591;29;20228;-56
2023/01/24 09:39:38;;;;;;;3.90;3.08;;;21.70;52.50;;;;;;4914103;29;20196;-54
2023/01/24 09:42:16;;;;;;;3.92;2.83;;;21.70;52.50;;;;;;4914325;29;20231;-57
2023/01/24 09:44:51;;;;;;;4.00;2.80;;;21.70;52.60;;;;;;4915775;29;20204;-57
2023/01/24 09:47:25;;;;;;;3.60;3.03;;;21.70;52.60;;;;;;4918768;29;20227;-57
2023/01/24 09:50:01;;;;;;;3.08;2.50;;;21.70;52.60;;;;;;4954910;28;20896;-58
2023/01/24 09:52:37;;;;;;;3.78;2.75;;;21.70;52.60;;;;;;4954283;28;20686;-56
2023/01/24 09:55:14;;;;;;;3.55;2.60;;;21.70;52.50;;;;;;4950196;28;20199;-57
2023/01/24 09:57:54;;;;;;;4.63;2.88;;;21.70;52.50;;;;;;4939803;29;20730;-55
2023/01/24 10:00:30;;;;;;;3.50;2.50;;;21.70;52.50;;;;;;4954987;28;20214;-57
2023/01/24 10:03:02;;;;;;;3.42;2.83;;;21.70;52.60;;;;;;4954539;28;20198;-57
2023/01/24 10:05:37;;;;;;;2.80;2.60;;;21.70;52.60;;;;;;4955212;28;20225;-58
2023/01/24 10:08:17;;;;;;;3.38;2.58;;;21.70;52.60;;;;;;4946895;28;20585;-57
2023/01/24 10:10:53;;;;;;;4.07;2.75;;;21.70;52.60;;;;;;4955184;28;20202;-57
2023/01/24 10:13:59;;;;;;;3.08;2.78;;;21.70;52.60;;;;;;4952500;28;20847;-57
2023/01/24 10:17:01;;;;;;;4.55;3.17;;;21.70;52.60;;;;;;4897271;28;20200;-56
2023/01/24 10:19:48;;;;;;;3.78;2.83;;;21.70;52.60;;;;;;4949229;29;20221;-57
2023/01/24 10:22:35;;;;;;;3.60;2.88;;;21.70;52.60;;;;;;4954641;28;20238;-56
2023/01/24 10:25:12;;;;;;;4.93;2.70;;;21.70;52.50;;;;;;4916391;29;20235;-54
2023/01/24 10:27:47;;;;;;;3.53;2.83;;;21.70;52.50;;;;;;4920514;29;20216;-56
2023/01/24 10:30:20;;;;;;;4.03;2.85;;;21.70;52.50;;;;;;4953794;28;20214;-57
2023/01/24 10:32:55;;;;;;;3.95;2.78;;;21.70;52.50;;;;;;4954643;28;21383;-54
2023/01/24 10:35:31;;;;;;;2.67;2.47;;;21.70;52.50;;;;;;4951272;28;20206;-56
2023/01/24 10:38:09;;;;;;;3.03;2.40;;;21.70;52.50;;;;;;4938147;29;20211;-55
2023/01/24 10:40:53;;;;;;;3.15;2.40;;;21.70;52.60;;;;;;4954631;28;20225;-54
2023/01/24 10:43:26;;;;;;;3.55;2.63;;;21.60;52.50;;;;;;4945140;28;20211;-53
2023/01/24 10:46:14;;;;;;;2.88;2.45;;;21.70;52.60;;;;;;4935493;29;20210;-54
2023/01/24 10:48:47;;;;;;;2.65;2.45;;;21.60;52.50;;;;;;4935427;29;20234;-50
2023/01/24 10:51:20;;;;;;;3.22;2.60;;;21.60;52.50;;;;;;4935403;29;20207;-53
2023/01/24 10:53:53;;;;;;;4.78;2.58;;;21.60;52.50;;;;;;4933946;29;20196;-55
2023/01/24 10:56:24;;;;;;;3.35;2.58;;;21.60;52.50;;;;;;4937463;29;20204;-54
2023/01/24 10:59:05;;;;;;;2.63;2.40;;;21.60;52.50;;;;;;4935108;29;20552;-54
2023/01/24 11:01:38;;;;;;;2.47;2.28;;;21.60;52.50;;;;;;4935348;29;20234;-55
2023/01/24 11:04:28;;;;;;;2.85;2.25;;;21.60;52.50;;;;;;4935101;29;20199;-55
2023/01/24 11:07:00;;;;;;;2.72;2.50;;;21.60;52.50;;;;;;4935092;29;20242;-55
2023/01/24 11:09:36;;;;;;;3.35;2.35;;;21.60;52.50;;;;;;4934749;29;20295;-53
2023/01/24 11:12:06;;;;;;;2.30;2.10;;;21.60;52.50;;;;;;4934737;29;20547;-56
2023/01/24 11:14:38;;;;;;;2.75;2.50;;;21.60;52.50;;;;;;4915833;29;20211;-53
2023/01/24 11:17:35;;;;;;;2.72;2.40;;;21.60;52.50;;;;;;4916020;29;20228;-56
2023/01/24 11:20:19;;;;;;;2.58;2.10;;;21.60;52.50;;;;;;4916285;29;20204;-54
2023/01/24 11:22:53;;;;;;;3.15;2.42;;;21.60;52.50;;;;;;4916379;29;20228;-53
2023/01/24 11:25:26;;;;;;;2.88;2.30;;;21.60;52.40;;;;;;4916535;29;20212;-54
2023/01/24 11:27:56;;;;;;;2.58;2.35;;;21.60;52.40;;;;;;4915930;29;20233;-54
2023/01/24 11:30:28;;;;;;;3.10;2.15;;;21.60;52.50;;;;;;4915259;29;20207;-53
2023/01/24 11:33:18;;;;;;;2.67;2.22;;;21.60;52.50;;;;;;4915478;29;20207;-54
2023/01/24 11:35:54;;;;;;;2.92;2.20;;;21.60;52.50;;;;;;4915677;29;20208;-54
2023/01/24 11:38:31;;;;;;;2.95;2.40;;;21.60;52.40;;;;;;4915537;29;20220;-54
2023/01/24 11:41:12;;;;;;;2.63;2.35;;;21.60;52.50;;;;;;4915159;29;20208;-54
2023/01/24 11:44:00;;;;;;;2.88;2.55;;;21.60;52.40;;;;;;4927374;29;20251;-54
2023/01/24 11:46:52;;;;;;;2.42;1.92;;;21.60;52.50;;;;;;4934424;29;20768;-52
2023/01/24 11:49:46;;;;;;;2.58;2.38;;;21.60;52.40;;;;;;4934270;29;20199;-52
2023/01/24 11:52:30;;;;;;;2.53;2.22;;;21.60;52.40;;;;;;4930046;29;20579;-55
2023/01/24 11:55:14;;;;;;;4.03;2.33;;;21.60;52.30;;;;;;4933914;29;20203;-55
2023/01/24 11:57:55;;;;;;;2.30;2.10;;;21.60;52.30;;;;;;4936229;29;20207;-54
2023/01/24 12:00:34;;;;;;;2.50;2.00;;;21.60;52.40;;;;;;4934161;29;20214;-56
2023/01/24 12:03:33;;;;;;;3.97;2.17;;;21.60;52.40;;;;;;4934482;29;20238;-55
2023/01/24 12:06:22;;;;;;;2.45;2.25;;;21.50;52.40;;;;;;4933761;29;20199;-56
2023/01/24 12:09:05;;;;;;;2.35;2.15;;;21.50;52.30;;;;;;4934572;29;20673;-52
2023/01/24 12:11:41;;;;;;;2.50;1.95;;;21.50;52.30;;;;;;4934214;29;20207;-53
2023/01/24 12:14:39;;;;;;;3.22;2.25;;;21.50;52.30;;;;;;4933902;29;20214;-56
2023/01/24 12:17:18;;;;;;;2.63;1.92;;;21.50;52.40;;;;;;4927375;29;20224;-54
2023/01/24 12:20:04;;;;;;;2.70;2.10;;;21.50;52.30;;;;;;4933514;29;20218;-56
2023/01/24 12:22:36;;;;;;;2.75;2.15;;;21.50;52.40;;;;;;4933803;29;20235;-54
2023/01/24 12:25:24;;;;;;;2.90;2.30;;;21.50;52.30;;;;;;4933970;29;20200;-55
2023/01/24 12:27:57;;;;;;;2.60;2.28;;;21.50;52.30;;;;;;4933993;29;20275;-55
2023/01/24 12:30:35;;;;;;;2.38;1.83;;;21.50;52.30;;;;;;4933910;29;20203;-54
2023/01/24 12:33:15;;;;;;;2.40;2.15;;;21.50;52.30;;;;;;4933970;29;20199;-57
2023/01/24 12:35:49;;;;;;;2.45;2.25;;;21.50;52.30;;;;;;4934185;29;20222;-55
2023/01/24 12:38:25;;;;;;;2.35;2.15;;;21.50;52.30;;;;;;4934052;29;20692;-54
2023/01/24 12:41:08;;;;;;;1.98;1.83;;;21.50;52.30;;;;;;4933936;29;20211;-56
2023/01/24 12:43:52;;;;;;;2.92;2.10;;;21.50;52.30;;;;;;4932924;29;20223;-55
2023/01/24 12:46:32;;;;;;;2.47;2.17;;;21.50;52.30;;;;;;4933356;29;20203;-55
2023/01/24 12:49:12;;;;;;;2.13;1.67;;;21.50;52.30;;;;;;4933537;29;20679;-52
2023/01/24 12:51:49;;;;;;;2.30;2.05;;;21.50;52.30;;;;;;4933555;29;20215;-55
2023/01/24 12:54:23;;;;;;;2.20;1.98;;;21.50;52.30;;;;;;4933663;29;20207;-52
2023/01/24 12:57:01;;;;;;;2.17;1.95;;;21.50;52.30;;;;;;4936010;29;20214;-53
2023/01/24 12:59:33;;;;;;;2.17;1.70;;;21.50;52.30;;;;;;4933289;29;20698;-55
2023/01/24 13:02:35;;;;;;;2.55;1.90;;;21.50;52.30;;;;;;4933083;29;20242;-55
2023/01/24 13:05:35;;;;;;;1.90;1.70;;;21.50;52.30;;;;;;4933434;29;20211;-55
2023/01/24 13:08:19;;;;;;;1.88;1.77;;;21.50;52.30;;;;;;4933357;29;20219;-56
2023/01/24 13:10:59;;;;;;;1.67;1.58;;;21.40;52.20;;;;;;4933501;29;20199;-55
2023/01/24 13:13:34;;;;;;;2.53;1.80;;;21.40;52.20;;;;;;4933574;29;20211;-55
2023/01/24 13:16:24;;;;;;;2.47;1.67;;;21.40;52.20;;;;;;4934138;29;20199;-56
2023/01/24 13:19:03;;;;;;;2.58;1.80;;;21.40;52.20;;;;;;4936995;29;20196;-56
2023/01/24 13:21:42;;;;;;;1.98;1.75;;;21.40;52.30;;;;;;4937492;29;20199;-54
2023/01/24 13:24:38;;;;;;;2.55;2.00;;;21.40;52.20;;;;;;4937078;29;20666;-54
2023/01/24 13:27:31;;;;;;;2.10;1.83;;;21.40;52.30;;;;;;4937064;29;20696;-52
2023/01/24 13:30:28;;;;;;;2.03;1.80;;;21.40;52.30;;;;;;4936773;29;20204;-55
2023/01/24 13:33:03;;;;;;;1.80;1.70;;;21.40;52.20;;;;;;4936689;28;20199;-55
2023/01/24 13:35:34;;;;;;;2.67;1.73;;;21.40;52.20;;;;;;4936657;29;20203;-54
2023/01/24 13:38:17;;;;;;;2.00;1.60;;;21.40;52.30;;;;;;4936497;29;20220;-56
2023/01/24 13:41:04;;;;;;;1.83;1.67;;;21.40;52.30;;;;;;4936765;29;20207;-55
2023/01/24 13:43:58;;;;;;;2.00;1.60;;;21.40;52.30;;;;;;4936372;29;20237;-56
2023/01/24 13:47:00;;;;;;;1.58;1.48;;;21.40;52.20;;;;;;4936081;29;20259;-54
2023/01/24 13:49:40;;;;;;;2.15;1.67;;;21.40;52.20;;;;;;4937533;29;20669;-55
2023/01/24 13:52:39;;;;;;;2.30;1.75;;;21.40;52.20;;;;;;4936322;29;20211;-54
2023/01/24 13:55:50;;;;;;;1.88;1.60;;;21.30;52.20;;;;;;4936138;29;20230;-55
2023/01/24 13:58:27;;;;;;;1.98;1.50;;;21.30;52.20;;;;;;4923882;29;20235;-54
2023/01/24 14:01:00;;;;;;;2.47;1.70;;;21.30;52.20;;;;;;4936279;29;20682;-55